logo tempoitalia

Diretta Meteo Pula Aerodrome, Croazialunedì 31 agosto ore 07:00

Mappa
Sereno 20 °C Sereno 24 Ore: T.min 18 T.max 32
Ponente Nord Km/h 3.7 Punto di rugiada: 16 °C Umidità: 77% Visibilità: 10 Km
Il sole sorge alle: 06:23 Il sole tramonta alle: 19:45
31 Agosto 2026 07:00 tempo osservato: Sereno Sereno 20 77 1014 vento: Nord N 3.7
31 Agosto 2026 06:30 tempo osservato: Sereno Sereno 19 82 1013 vento: Nord N 3.7
31 Agosto 2026 06:00 tempo osservato: Sereno Sereno 19 82 1013 vento: Nord N 0
31 Agosto 2026 05:30 tempo osservato: Sereno Sereno 19 82 1013 vento: Nord N 1.8
31 Agosto 2026 05:00 tempo osservato: Sereno Sereno 19 82 1013 vento: Nord N 1.8
31 Agosto 2026 04:30 tempo osservato: Sereno Sereno 19 77 1014 vento: Nord N 3.7
31 Agosto 2026 04:00 tempo osservato: Sereno Sereno 18 88 1014 vento: Nord N 3.7
31 Agosto 2026 03:30 tempo osservato: Sereno Sereno 19 82 1014 vento: Nord N 5.5
31 Agosto 2026 03:00 tempo osservato: Sereno Sereno 19 82 1014 vento: Nord N 5.5
31 Agosto 2026 02:30 tempo osservato: Sereno Sereno 20 82 1014 vento: Nord N 5.5
31 Agosto 2026 02:00 tempo osservato: Sereno Sereno 19 88 1014 vento: Nord N 5.5
31 Agosto 2026 01:30 tempo osservato: Sereno Sereno 19 88 1014 vento: Nord N 1.8
31 Agosto 2026 01:00 tempo osservato: Sereno Sereno 20 88 1014 vento: Nord N 3.7
31 Agosto 2026 00:30 tempo osservato: Sereno Sereno 20 88 1014 vento: Nord N 3.7
31 Agosto 2026 00:00 tempo osservato: Sereno Sereno 22 83 1014 vento: Nord N 5.5
30 Agosto 2026 23:30 tempo osservato: Sereno Sereno 21 88 1014 vento: Nord N 3.7
30 Agosto 2026 23:00 tempo osservato: Sereno Sereno 21 88 1014 vento: Nord N 0
30 Agosto 2026 22:30 tempo osservato: Sereno Sereno 22 88 1014 vento: Nord N 3.7
30 Agosto 2026 22:00 tempo osservato: Sereno Sereno 23 83 1014 vento: Nord N 3.7
30 Agosto 2026 21:30 tempo osservato: Sereno Sereno 23 83 1014 vento: Nord N 3.7
30 Agosto 2026 21:00 tempo osservato: Sereno Sereno 23 83 1014 vento: Nord N 1.8
30 Agosto 2026 20:30 tempo osservato: Sereno Sereno 24 83 1014 vento: Nord N 1.8
30 Agosto 2026 20:00 tempo osservato: Sereno Sereno 25 78 1013 vento: Nord O/NO 7.4
30 Agosto 2026 19:30 tempo osservato: Sereno Sereno 27 69 1013 vento: Nord O 7.4
30 Agosto 2026 19:00 tempo osservato: Sereno Sereno 30 48 1013 vento: Nord N 3.7
30 Agosto 2026 18:30 tempo osservato: Sereno Sereno 30 55 1013 vento: Nord N 3.7
30 Agosto 2026 18:00 tempo osservato: Sereno Sereno 30 55 1013 vento: Nord O 9.3
30 Agosto 2026 17:30 tempo osservato: Sereno Sereno 31 48 1013 vento: Nord N 5.5
30 Agosto 2026 17:00 tempo osservato: Sereno Sereno 30 55 1013 vento: Nord SO 9.3
30 Agosto 2026 16:30 tempo osservato: Sereno Sereno 30 51 1014 vento: Nord O 9.3
30 Agosto 2026 16:00 tempo osservato: Sereno Sereno 31 48 1014 vento: Nord O/SO 11.1
30 Agosto 2026 15:30 tempo osservato: Sereno Sereno 31 48 1014 vento: Nord O/SO 9.3
30 Agosto 2026 15:00 tempo osservato: Sereno Sereno 31 45 1014 vento: Nord N 9.3
30 Agosto 2026 14:30 tempo osservato: Sereno Sereno 32 40 1014 vento: Nord N 7.4
30 Agosto 2026 14:00 tempo osservato: Sereno Sereno 32 38 1014 vento: Nord S/SE 9.3
30 Agosto 2026 13:30 tempo osservato: Sereno Sereno 32 38 1014 vento: Nord E/SE 9.3
30 Agosto 2026 13:00 tempo osservato: Sereno Sereno 31 45 1014 vento: Nord N 7.4
30 Agosto 2026 12:30 tempo osservato: Sereno Sereno 31 40 1014 vento: Nord N 7.4
30 Agosto 2026 12:00 tempo osservato: Sereno Sereno 31 40 1015 vento: Nord N 7.4
30 Agosto 2026 11:30 tempo osservato: Sereno Sereno 31 40 1015 vento: Nord N 5.5
30 Agosto 2026 11:00 tempo osservato: Sereno Sereno 30 40 1015 vento: Nord S/SO 7.4
30 Agosto 2026 10:30 tempo osservato: Sereno Sereno 30 40 1015 vento: Nord E/SE 9.3
30 Agosto 2026 10:00 tempo osservato: Sereno Sereno 30 37 1014 vento: Nord E 7.4
30 Agosto 2026 09:30 tempo osservato: Sereno Sereno 30 37 1014 vento: Nord E 9.3
30 Agosto 2026 09:00 tempo osservato: Sereno Sereno 28 45 1014 vento: Nord E/NE 7.4
30 Agosto 2026 08:30 tempo osservato: Sereno Sereno 27 47 1014 vento: Nord N 5.5
30 Agosto 2026 08:00 tempo osservato: Sereno Sereno 25 53 1014 vento: Nord NE 7.4